Decoded Metar for UMBB (BREST in BELARUS) (IATA:N/A) | Meteo·Mobile Aviation Weather
aviador You're here:

UMBB Decoded Metar

BREST in BELARUS
Report Time2019-04-25 09:30:00
UTC Time2019-04-25 09:46:06
Flight Rules vfr VFR
Wind150° at 8 Gusting to 14 kt
W.Decomp.*RWY 11: 6.6 kt HW 4.5 kt RCW
Visibility9999 m
Phenomena:N/A
Clouds:N/A
Expected CloudBase > 5,600 ft AGL from Temp-Dew spread
CeilingNone
Temp19°C (ISA +5)
Dew Point05°C (40% RH)
AAT15.0°C
QNH1019 hPa
Density Alt968 ft
Elevation469 ft
Report Wrong Elevation
Raw Report
UMBB 250930Z 15004G07MPS CAVOK 19/05 Q1019 R11/CLRD// NOSIG=

Extra information for UMBB:More info

Metar Taf Metar & Taf Last 4 Metars F.Rules Stats Wind Profile Meteogram Temp Stats Airport Information Weather charts Add Link Nearby VenuesMetar ALERT Operation Metar Decoded Social comments